Terminal Aerodrome Forecast
Issued by NWS

Home | Current Version | Previous Version | Text Only | Print | Product List | Glossary On
Versions: 1 2 3 4 5 6 7 8 9 10 11 12 13 14 15
000
FTUS41 KBTV 031732
TAFMPV
TAF
KMPV 031732Z 0318/0418 31007KT P6SM FEW250
     FM032300 00000KT P6SM FEW250
     FM040800 00000KT 1SM BR BKN200
     FM040900 00000KT 1/2SM FG BKN200
     FM041130 00000KT P6SM BKN250=

USA.gov is the U.S. government's official web portal to all federal, state and local government web resources and services.